createdAt,value
2022-09-27T00:00:16.701Z,10.70
2022-09-27T00:01:18.579Z,10.70
2022-09-27T00:02:20.482Z,10.70
2022-09-27T00:03:22.267Z,10.70
2022-09-27T00:04:24.187Z,10.70
2022-09-27T00:05:26.336Z,10.80
2022-09-27T00:06:30.458Z,10.80
2022-09-27T00:07:32.249Z,10.80
2022-09-27T00:08:35.600Z,10.80
2022-09-27T00:09:37.889Z,10.80
2022-09-27T00:10:39.620Z,10.70
2022-09-27T00:11:42.774Z,10.80
2022-09-27T00:12:44.578Z,10.70
2022-09-27T00:13:46.448Z,10.80
2022-09-27T00:14:48.207Z,10.80
2022-09-27T00:15:59.673Z,10.80
2022-09-27T00:17:01.616Z,10.80
2022-09-27T00:18:03.452Z,10.80
2022-09-27T00:19:15.360Z,10.80
2022-09-27T00:20:17.901Z,10.80
2022-09-27T00:21:19.722Z,10.80
2022-09-27T00:22:22.791Z,10.80
2022-09-27T00:23:24.641Z,10.80
2022-09-27T00:24:26.592Z,10.80
2022-09-27T00:25:28.400Z,10.80
2022-09-27T00:26:30.337Z,10.80
2022-09-27T00:27:33.695Z,10.70
2022-09-27T00:28:35.854Z,10.80
2022-09-27T00:29:37.980Z,10.80
2022-09-27T00:30:44.498Z,10.70
2022-09-27T00:31:46.523Z,10.70
2022-09-27T00:32:48.409Z,10.60
2022-09-27T00:33:53.417Z,10.70
2022-09-27T00:34:55.559Z,10.70
2022-09-27T00:36:04.722Z,10.70
2022-09-27T00:37:06.927Z,10.60
2022-09-27T00:38:08.734Z,10.60
2022-09-27T00:39:11.104Z,10.60
2022-09-27T00:40:17.350Z,10.60
2022-09-27T00:41:30.031Z,10.70
2022-09-27T00:42:31.846Z,10.60
2022-09-27T00:44:04.621Z,10.60
2022-09-27T00:45:17.796Z,10.60
2022-09-27T00:46:25.849Z,10.60
2022-09-27T00:47:30.098Z,10.60
2022-09-27T00:48:33.431Z,10.60
2022-09-27T00:50:08.883Z,10.60
2022-09-27T00:51:10.976Z,10.60
2022-09-27T00:52:21.908Z,10.60
2022-09-27T00:53:37.464Z,10.50
2022-09-27T00:54:43.584Z,10.50
2022-09-27T00:55:54.375Z,10.50
2022-09-27T00:56:56.774Z,10.50
2022-09-27T00:57:58.844Z,10.50
2022-09-27T00:59:07.837Z,10.50
2022-09-27T01:00:12.354Z,10.50
2022-09-27T01:01:14.407Z,10.50
2022-09-27T01:02:16.801Z,10.50
2022-09-27T01:03:33.171Z,10.50
2022-09-27T01:04:37.477Z,10.50
2022-09-27T01:05:40.954Z,10.50
2022-09-27T01:06:42.804Z,10.40
2022-09-27T01:07:44.742Z,10.40
2022-09-27T01:08:46.485Z,10.50
2022-09-27T01:09:48.325Z,10.40
2022-09-27T01:11:09.210Z,10.40
2022-09-27T01:12:20.062Z,10.40
2022-09-27T01:13:33.841Z,10.40
2022-09-27T01:14:41.726Z,10.30
2022-09-27T01:15:49.808Z,10.30
2022-09-27T01:17:09.254Z,10.30
2022-09-27T01:18:41.780Z,10.30
2022-09-27T01:20:20.289Z,10.30
2022-09-27T01:21:39.402Z,10.30
2022-09-27T01:22:50.427Z,10.30
2022-09-27T01:23:52.198Z,10.30
2022-09-27T01:25:01.370Z,10.30
2022-09-27T01:26:39.714Z,10.30
2022-09-27T01:28:11.487Z,10.30
2022-09-27T01:29:33.027Z,10.30
2022-09-27T01:30:44.206Z,10.30
2022-09-27T01:32:15.010Z,10.30
2022-09-27T01:33:46.660Z,10.30
2022-09-27T01:35:20.445Z,10.30
2022-09-27T01:36:53.493Z,10.20
2022-09-27T01:38:26.195Z,10.20
2022-09-27T01:39:53.295Z,10.20
2022-09-27T01:41:10.695Z,10.20
2022-09-27T01:42:30.619Z,10.20
2022-09-27T01:43:56.119Z,10.20
2022-09-27T01:45:27.610Z,10.20
2022-09-27T01:46:46.014Z,10.20
2022-09-27T01:48:13.228Z,10.20
2022-09-27T01:49:36.416Z,10.20
2022-09-27T01:50:47.210Z,10.20
2022-09-27T01:51:55.467Z,10.20
2022-09-27T01:53:04.993Z,10.10
2022-09-27T01:54:22.980Z,10.10
2022-09-27T01:55:38.272Z,10.10
2022-09-27T01:57:11.452Z,10.10
2022-09-27T01:58:30.751Z,10.10
2022-09-27T01:59:49.454Z,10.20
2022-09-27T02:01:13.167Z,10.20
2022-09-27T02:02:24.642Z,10.10
2022-09-27T02:03:49.652Z,10.10
2022-09-27T02:05:14.389Z,10.10
2022-09-27T02:06:25.699Z,10.00
2022-09-27T02:08:12.732Z,10.00
2022-09-27T02:09:24.937Z,10.00
2022-09-27T02:10:45.340Z,10.00
2022-09-27T02:11:58.342Z,10.00
2022-09-27T02:13:31.933Z,10.00
2022-09-27T02:14:55.651Z,10.00
2022-09-27T02:16:20.756Z,10.00
2022-09-27T02:17:42.225Z,10.00
2022-09-27T02:18:56.851Z,10.00
2022-09-27T02:20:20.095Z,10.00
2022-09-27T02:21:37.376Z,10.00
2022-09-27T02:22:44.492Z,10.00
2022-09-27T02:23:59.977Z,10.00
2022-09-27T02:25:23.996Z,10.00
2022-09-27T02:26:35.859Z,10.00
2022-09-27T02:28:03.514Z,10.00
2022-09-27T02:29:32.921Z,10.00
2022-09-27T02:30:37.398Z,10.00
2022-09-27T02:31:56.778Z,10.00
2022-09-27T02:32:59.024Z,10.00
2022-09-27T02:34:19.831Z,10.00
2022-09-27T02:35:30.090Z,10.00
2022-09-27T02:36:32.002Z,9.90
2022-09-27T02:37:34.190Z,10.00
2022-09-27T02:38:36.726Z,10.00
2022-09-27T02:39:38.698Z,10.00
2022-09-27T02:40:45.156Z,10.00
2022-09-27T02:41:47.241Z,10.00
2022-09-27T02:42:49.104Z,10.00
2022-09-27T02:43:57.923Z,10.00
2022-09-27T02:45:05.419Z,10.00
2022-09-27T02:46:25.998Z,10.00
2022-09-27T02:47:57.743Z,10.00
2022-09-27T02:49:29.970Z,9.90
2022-09-27T02:51:18.207Z,9.90
2022-09-27T02:52:22.748Z,9.90
2022-09-27T02:53:43.579Z,9.90
2022-09-27T02:55:20.668Z,9.90
2022-09-27T02:56:53.128Z,9.90
2022-09-27T02:58:35.875Z,9.80
2022-09-27T03:00:21.591Z,9.80
2022-09-27T03:02:13.830Z,9.80
2022-09-27T03:03:40.383Z,9.80
2022-09-27T03:04:53.804Z,9.70
2022-09-27T03:06:07.884Z,9.70
2022-09-27T03:07:10.106Z,9.70
2022-09-27T03:08:12.754Z,9.70
2022-09-27T03:09:21.563Z,9.70
2022-09-27T03:10:29.409Z,9.70
2022-09-27T03:11:31.169Z,9.70
2022-09-27T03:12:34.694Z,9.70
2022-09-27T03:13:55.775Z,9.70
2022-09-27T03:15:01.709Z,9.70
2022-09-27T03:16:21.936Z,9.70
2022-09-27T03:17:32.759Z,9.70
2022-09-27T03:18:37.322Z,9.70
2022-09-27T03:20:17.955Z,9.70
2022-09-27T03:21:30.219Z,9.70
2022-09-27T03:22:32.583Z,9.70
2022-09-27T03:23:34.624Z,9.70
2022-09-27T03:24:36.561Z,9.80
2022-09-27T03:25:38.369Z,9.70
2022-09-27T03:26:40.638Z,9.80
2022-09-27T03:27:43.948Z,9.80
2022-09-27T03:28:46.108Z,9.80
2022-09-27T03:29:47.992Z,9.80
2022-09-27T03:30:52.202Z,9.80
2022-09-27T03:32:14.308Z,9.80
2022-09-27T03:33:34.994Z,9.80
2022-09-27T03:34:42.601Z,9.80
2022-09-27T03:35:44.536Z,9.80
2022-09-27T03:36:46.589Z,9.80
2022-09-27T03:37:49.254Z,9.90
2022-09-27T03:38:51.066Z,9.80
2022-09-27T03:39:55.084Z,9.80
2022-09-27T03:40:57.132Z,9.80
2022-09-27T03:41:58.997Z,9.80
2022-09-27T03:43:01.648Z,9.90
2022-09-27T03:44:11.507Z,9.90
2022-09-27T03:45:14.335Z,9.90
2022-09-27T03:46:16.397Z,9.90
2022-09-27T03:47:18.342Z,9.80
2022-09-27T03:48:22.373Z,9.80
2022-09-27T03:49:27.793Z,9.80
2022-09-27T03:50:29.542Z,9.80
2022-09-27T03:51:31.349Z,9.80
2022-09-27T03:52:33.110Z,9.80
2022-09-27T03:53:35.143Z,9.80
2022-09-27T03:54:37.056Z,9.90
2022-09-27T03:55:39.079Z,9.80
2022-09-27T03:56:41.105Z,9.90
2022-09-27T03:57:47.041Z,9.80
2022-09-27T03:58:50.928Z,9.90
2022-09-27T03:59:53.379Z,9.90
2022-09-27T04:01:13.778Z,9.90
2022-09-27T04:02:20.163Z,9.90
2022-09-27T04:03:40.769Z,9.90
2022-09-27T04:05:14.746Z,9.90
2022-09-27T04:06:18.031Z,9.90
2022-09-27T04:07:20.107Z,10.00
2022-09-27T04:08:23.784Z,10.00
2022-09-27T04:09:25.894Z,10.00
2022-09-27T04:10:32.581Z,10.00
2022-09-27T04:11:34.318Z,10.00
2022-09-27T04:12:36.076Z,10.00
2022-09-27T04:13:38.084Z,10.00
2022-09-27T04:14:40.102Z,10.00
2022-09-27T04:16:02.940Z,10.00
2022-09-27T04:17:10.874Z,10.00
2022-09-27T04:18:31.164Z,10.00
2022-09-27T04:19:51.652Z,10.00
2022-09-27T04:20:54.618Z,10.00
2022-09-27T04:21:56.607Z,10.00
2022-09-27T04:22:58.413Z,10.00
2022-09-27T04:24:00.484Z,10.00
2022-09-27T04:25:02.328Z,10.00
2022-09-27T04:26:11.436Z,10.00
2022-09-27T04:27:23.563Z,10.00
2022-09-27T04:28:26.462Z,10.00
2022-09-27T04:29:28.392Z,10.00
2022-09-27T04:30:34.725Z,10.00
2022-09-27T04:31:48.391Z,10.00
2022-09-27T04:33:00.664Z,9.90
2022-09-27T04:34:46.255Z,9.90
2022-09-27T04:36:09.501Z,9.80
2022-09-27T04:37:14.558Z,9.80
2022-09-27T04:38:24.127Z,9.80
2022-09-27T04:39:26.536Z,9.80
2022-09-27T04:40:28.664Z,9.80
2022-09-27T04:41:32.815Z,9.80
2022-09-27T04:42:34.819Z,9.80
2022-09-27T04:43:36.784Z,9.80
2022-09-27T04:44:39.211Z,9.80
2022-09-27T04:45:42.928Z,9.70
2022-09-27T04:46:44.761Z,9.70
2022-09-27T04:47:50.096Z,9.70
2022-09-27T04:48:52.246Z,9.70
2022-09-27T04:49:54.666Z,9.70
2022-09-27T04:50:58.388Z,9.70
2022-09-27T04:52:00.303Z,9.70
2022-09-27T04:53:02.362Z,9.70
2022-09-27T04:54:04.871Z,9.70
2022-09-27T04:55:22.232Z,9.70
2022-09-27T04:56:23.971Z,9.70
2022-09-27T04:57:25.960Z,9.70
2022-09-27T04:58:27.762Z,9.70
2022-09-27T04:59:29.602Z,9.70
2022-09-27T05:00:31.918Z,9.70
2022-09-27T05:01:50.684Z,9.70
2022-09-27T05:03:12.185Z,9.70
2022-09-27T05:04:40.188Z,9.70
2022-09-27T05:05:43.646Z,9.70
2022-09-27T05:06:45.540Z,9.60
2022-09-27T05:07:59.917Z,9.70
2022-09-27T05:09:20.526Z,9.60
2022-09-27T05:10:28.124Z,9.60
2022-09-27T05:11:32.778Z,9.60
2022-09-27T05:12:53.238Z,9.60
2022-09-27T05:13:55.196Z,9.60
2022-09-27T05:14:58.606Z,9.60
2022-09-27T05:16:20.131Z,9.60
2022-09-27T05:17:40.384Z,9.60
2022-09-27T05:19:00.396Z,9.60
2022-09-27T05:20:39.933Z,9.60
2022-09-27T05:21:46.245Z,9.60
2022-09-27T05:22:48.400Z,9.60
2022-09-27T05:23:50.619Z,9.60
2022-09-27T05:24:52.467Z,9.70
2022-09-27T05:25:56.612Z,9.70
2022-09-27T05:26:59.391Z,9.70
2022-09-27T05:28:01.334Z,9.70
2022-09-27T05:29:04.097Z,9.70
2022-09-27T05:30:08.077Z,9.70
2022-09-27T05:31:20.602Z,9.70
2022-09-27T05:32:22.659Z,9.70
2022-09-27T05:33:31.499Z,9.70
2022-09-27T05:34:53.814Z,9.70
2022-09-27T05:35:57.655Z,9.70
2022-09-27T05:37:03.480Z,9.80
2022-09-27T05:38:10.095Z,9.70
2022-09-27T05:39:16.841Z,9.70
2022-09-27T05:40:39.738Z,9.80
2022-09-27T05:41:41.354Z,9.80
2022-09-27T05:42:43.285Z,9.70
2022-09-27T05:43:45.598Z,9.80
2022-09-27T05:44:48.681Z,9.80
2022-09-27T05:45:52.990Z,9.80
2022-09-27T05:46:56.177Z,9.80
2022-09-27T05:47:59.666Z,9.70
2022-09-27T05:49:02.563Z,9.70
2022-09-27T05:50:05.724Z,9.70
2022-09-27T05:51:07.979Z,9.70
2022-09-27T05:52:16.045Z,9.70
2022-09-27T05:53:19.562Z,9.80
2022-09-27T05:54:22.100Z,9.80
2022-09-27T05:55:24.331Z,9.80
2022-09-27T05:56:26.645Z,9.80
2022-09-27T05:58:16.160Z,9.80
2022-09-27T05:59:26.694Z,9.80
2022-09-27T06:01:08.315Z,9.80
2022-09-27T06:02:25.595Z,9.80
2022-09-27T06:03:34.506Z,9.80
2022-09-27T06:04:55.403Z,9.80
2022-09-27T06:06:16.026Z,9.70
2022-09-27T06:07:23.518Z,9.80
2022-09-27T06:08:25.596Z,9.80
2022-09-27T06:09:28.285Z,9.80
2022-09-27T06:10:32.018Z,9.80
2022-09-27T06:11:34.945Z,9.90
2022-09-27T06:12:36.824Z,9.90
2022-09-27T06:13:42.498Z,9.90
2022-09-27T06:14:45.970Z,9.90
2022-09-27T06:15:53.389Z,10.00
2022-09-27T06:16:56.342Z,10.00
2022-09-27T06:18:16.272Z,10.00
2022-09-27T06:19:20.002Z,10.00
2022-09-27T06:20:25.233Z,10.00
2022-09-27T06:21:28.791Z,10.10
2022-09-27T06:22:32.396Z,10.10
2022-09-27T06:23:35.883Z,10.10
2022-09-27T06:24:49.532Z,10.10
2022-09-27T06:25:56.370Z,10.10
2022-09-27T06:27:14.737Z,10.10
2022-09-27T06:28:32.220Z,10.10
2022-09-27T06:29:35.404Z,10.10
2022-09-27T06:30:40.822Z,10.10
2022-09-27T06:31:51.029Z,10.10
2022-09-27T06:33:03.223Z,10.10
2022-09-27T06:34:13.800Z,10.10
2022-09-27T06:35:16.090Z,10.10
2022-09-27T06:36:18.535Z,10.20
2022-09-27T06:37:26.904Z,10.20
2022-09-27T06:38:28.796Z,10.20
2022-09-27T06:39:49.084Z,10.20
2022-09-27T06:41:09.957Z,10.20
2022-09-27T06:42:27.936Z,10.20
2022-09-27T06:43:39.914Z,10.20
2022-09-27T06:45:02.007Z,10.20
2022-09-27T06:46:29.958Z,10.20
2022-09-27T06:47:47.141Z,10.20
2022-09-27T06:48:59.480Z,10.20
2022-09-27T06:50:06.066Z,10.20
2022-09-27T06:51:08.609Z,10.20
2022-09-27T06:52:11.579Z,10.20
2022-09-27T06:53:15.190Z,10.30
2022-09-27T06:54:17.303Z,10.30
2022-09-27T06:55:19.214Z,10.30
2022-09-27T06:56:21.545Z,10.30
2022-09-27T06:57:44.425Z,10.30
2022-09-27T06:59:21.661Z,10.30
2022-09-27T07:00:29.285Z,10.30
2022-09-27T07:01:59.972Z,10.30
2022-09-27T07:03:16.493Z,10.30
2022-09-27T07:04:47.422Z,10.30
2022-09-27T07:06:18.007Z,10.30
2022-09-27T07:07:24.700Z,10.40
2022-09-27T07:08:28.677Z,10.50
2022-09-27T07:09:30.862Z,10.50
2022-09-27T07:10:36.428Z,10.50
2022-09-27T07:11:38.321Z,10.60
2022-09-27T07:12:40.141Z,10.60
2022-09-27T07:13:43.695Z,10.60
2022-09-27T07:14:45.630Z,10.60
2022-09-27T07:15:50.102Z,10.60
2022-09-27T07:16:51.980Z,10.60
2022-09-27T07:17:59.507Z,10.60
2022-09-27T07:19:04.166Z,10.60
2022-09-27T07:20:06.408Z,10.60
2022-09-27T07:21:08.881Z,10.60
2022-09-27T07:22:11.678Z,10.70
2022-09-27T07:23:15.255Z,10.70
2022-09-27T07:24:17.509Z,10.70
2022-09-27T07:25:19.822Z,10.80
2022-09-27T07:26:21.608Z,10.80
2022-09-27T07:27:25.201Z,10.80
2022-09-27T07:28:27.239Z,10.90
2022-09-27T07:29:29.082Z,10.90
2022-09-27T07:30:31.934Z,10.90
2022-09-27T07:31:34.008Z,10.90
2022-09-27T07:32:36.913Z,11.00
2022-09-27T07:33:43.201Z,11.00
2022-09-27T07:34:45.414Z,11.00
2022-09-27T07:35:47.781Z,10.90
2022-09-27T07:36:49.622Z,10.90
2022-09-27T07:37:52.427Z,10.90
2022-09-27T07:38:54.250Z,10.90
2022-09-27T07:39:56.491Z,10.90
2022-09-27T07:40:59.361Z,10.90
2022-09-27T07:42:02.353Z,10.90
2022-09-27T07:43:05.075Z,10.90
2022-09-27T07:44:08.135Z,10.90
2022-09-27T07:45:17.218Z,10.90
2022-09-27T07:46:37.024Z,10.90
2022-09-27T07:47:43.930Z,10.90
2022-09-27T07:48:58.809Z,10.90
2022-09-27T07:50:33.212Z,10.80
2022-09-27T07:51:45.447Z,10.80
2022-09-27T07:53:06.139Z,10.80
2022-09-27T07:54:17.852Z,10.80
2022-09-27T07:55:43.247Z,10.80
2022-09-27T07:56:56.185Z,10.80
2022-09-27T07:58:09.770Z,10.80
2022-09-27T07:59:11.902Z,10.80
2022-09-27T08:00:16.552Z,10.80
2022-09-27T08:01:23.792Z,10.80
2022-09-27T08:02:26.114Z,10.80
2022-09-27T08:03:29.050Z,10.80
2022-09-27T08:04:30.921Z,10.90
2022-09-27T08:05:34.555Z,10.90
2022-09-27T08:06:36.907Z,10.90
2022-09-27T08:07:40.809Z,10.90
2022-09-27T08:08:42.730Z,10.90
2022-09-27T08:09:44.724Z,10.80
2022-09-27T08:10:47.858Z,10.80
2022-09-27T08:11:50.285Z,10.80
2022-09-27T08:12:52.816Z,10.80
2022-09-27T08:13:57.137Z,10.80
2022-09-27T08:15:05.325Z,10.80
2022-09-27T08:16:07.645Z,10.80
2022-09-27T08:17:29.596Z,10.80
2022-09-27T08:18:39.994Z,10.70
2022-09-27T08:20:06.425Z,10.70
2022-09-27T08:21:11.070Z,10.70
2022-09-27T08:22:33.371Z,10.70
2022-09-27T08:23:39.715Z,10.60
2022-09-27T08:24:58.044Z,10.60
2022-09-27T08:26:14.667Z,10.60
2022-09-27T08:27:37.256Z,10.60
2022-09-27T08:28:52.160Z,10.60
2022-09-27T08:29:58.892Z,10.60
2022-09-27T08:31:01.066Z,10.60
2022-09-27T08:32:02.840Z,10.70
2022-09-27T08:33:04.649Z,10.70
2022-09-27T08:34:06.576Z,10.70
2022-09-27T08:35:08.963Z,10.70
2022-09-27T08:36:12.462Z,10.70
2022-09-27T08:37:14.409Z,10.80
2022-09-27T08:38:16.551Z,10.70
2022-09-27T08:39:18.517Z,10.70
2022-09-27T08:40:31.662Z,10.70
2022-09-27T08:42:02.140Z,10.70
2022-09-27T08:43:18.971Z,10.70
2022-09-27T08:44:30.027Z,10.70
2022-09-27T08:46:09.828Z,10.70
2022-09-27T08:47:32.030Z,10.70
2022-09-27T08:48:38.003Z,10.70
2022-09-27T08:49:58.302Z,10.80
2022-09-27T08:51:02.820Z,10.80
2022-09-27T08:52:07.474Z,10.70
2022-09-27T08:53:21.439Z,10.70
2022-09-27T08:54:30.035Z,10.70
2022-09-27T08:55:42.197Z,10.70
2022-09-27T08:56:54.966Z,10.70
2022-09-27T08:57:59.244Z,10.70
2022-09-27T08:59:28.423Z,10.70
2022-09-27T09:00:31.243Z,10.70
2022-09-27T09:01:34.711Z,10.60
2022-09-27T09:03:01.693Z,10.60
2022-09-27T09:04:05.461Z,10.50
2022-09-27T09:05:13.424Z,10.50
2022-09-27T09:06:24.008Z,10.50
2022-09-27T09:07:59.899Z,10.50
2022-09-27T09:09:01.848Z,10.40
2022-09-27T09:10:59.956Z,10.40
2022-09-27T09:12:26.269Z,10.40
2022-09-27T09:13:59.675Z,10.40
2022-09-27T09:15:27.880Z,10.30
2022-09-27T09:17:00.605Z,10.30
2022-09-27T09:18:21.204Z,10.40
2022-09-27T09:19:39.792Z,10.30
2022-09-27T09:21:26.376Z,10.30
2022-09-27T09:23:07.102Z,10.30
2022-09-27T09:24:23.739Z,10.40
2022-09-27T09:25:41.101Z,10.40
2022-09-27T09:27:28.654Z,10.30
2022-09-27T09:28:54.962Z,10.30
2022-09-27T09:30:25.309Z,10.30
2022-09-27T09:31:43.986Z,10.20
2022-09-27T09:33:11.973Z,10.20
2022-09-27T09:34:32.197Z,10.20
2022-09-27T09:35:46.022Z,10.20
2022-09-27T09:36:59.631Z,10.30
2022-09-27T09:38:05.604Z,10.30
2022-09-27T09:39:11.468Z,10.30
2022-09-27T09:40:32.488Z,10.40
2022-09-27T09:41:43.500Z,10.40
2022-09-27T09:43:02.486Z,10.40
2022-09-27T09:44:19.237Z,10.50
2022-09-27T09:45:30.369Z,10.50
2022-09-27T09:46:32.378Z,10.50
2022-09-27T09:47:51.331Z,10.50
2022-09-27T09:49:04.754Z,10.50
2022-09-27T09:50:31.045Z,10.50
2022-09-27T09:51:43.381Z,10.50
2022-09-27T09:52:51.875Z,10.40
2022-09-27T09:54:02.940Z,10.40
2022-09-27T09:55:23.316Z,10.40
2022-09-27T09:56:35.704Z,10.40
2022-09-27T09:57:44.396Z,10.40
2022-09-27T09:59:11.649Z,10.40
2022-09-27T10:00:19.236Z,10.50
2022-09-27T10:01:35.546Z,10.50
2022-09-27T10:02:39.235Z,10.60
2022-09-27T10:03:46.675Z,10.60
2022-09-27T10:04:48.930Z,10.60
2022-09-27T10:05:51.000Z,10.70
2022-09-27T10:06:53.764Z,10.70
2022-09-27T10:07:58.911Z,10.70
2022-09-27T10:09:00.795Z,10.80
2022-09-27T10:10:19.289Z,10.80
2022-09-27T10:11:37.647Z,10.90
2022-09-27T10:12:46.419Z,10.90
2022-09-27T10:13:49.420Z,10.90
2022-09-27T10:14:54.051Z,11.00
2022-09-27T10:16:11.372Z,11.00
2022-09-27T10:17:18.279Z,11.00
2022-09-27T10:18:21.050Z,11.10
2022-09-27T10:19:32.963Z,11.10
2022-09-27T10:20:45.336Z,11.10
2022-09-27T10:21:49.541Z,11.10
2022-09-27T10:22:55.721Z,11.00
2022-09-27T10:24:25.576Z,11.10
2022-09-27T10:25:54.169Z,11.00
2022-09-27T10:27:10.004Z,11.00
2022-09-27T10:28:33.046Z,11.00
2022-09-27T10:29:38.716Z,11.00
2022-09-27T10:30:57.182Z,10.90
2022-09-27T10:32:04.209Z,10.90
2022-09-27T10:33:19.810Z,10.90
2022-09-27T10:34:41.701Z,10.90
2022-09-27T10:35:48.452Z,10.80
2022-09-27T10:37:12.853Z,10.80
2022-09-27T10:38:25.783Z,10.80
2022-09-27T10:39:33.780Z,10.80
2022-09-27T10:40:38.344Z,10.90
2022-09-27T10:41:43.225Z,10.90
2022-09-27T10:43:29.904Z,10.90
2022-09-27T10:44:37.491Z,10.90
2022-09-27T10:46:12.752Z,11.00
2022-09-27T10:47:23.534Z,11.10
2022-09-27T10:48:32.388Z,11.10
2022-09-27T10:49:37.166Z,11.10
2022-09-27T10:50:59.534Z,11.10
2022-09-27T10:52:18.439Z,11.20
2022-09-27T10:53:22.191Z,11.20
2022-09-27T10:54:39.301Z,11.20
2022-09-27T10:55:43.436Z,11.20
2022-09-27T10:56:45.538Z,11.20
2022-09-27T10:57:53.110Z,11.20
2022-09-27T10:58:56.136Z,11.20
2022-09-27T11:00:32.748Z,11.20
2022-09-27T11:01:48.382Z,11.20
2022-09-27T11:02:59.520Z,11.20
2022-09-27T11:04:05.164Z,11.10
2022-09-27T11:05:29.702Z,11.10
2022-09-27T11:06:37.993Z,11.00
2022-09-27T11:07:52.894Z,11.00
2022-09-27T11:09:35.544Z,11.00
2022-09-27T11:10:38.022Z,11.00
2022-09-27T11:11:41.388Z,11.00
2022-09-27T11:12:43.411Z,11.00
2022-09-27T11:14:08.051Z,11.10
2022-09-27T11:15:19.667Z,11.10
2022-09-27T11:16:42.771Z,11.10
2022-09-27T11:17:53.303Z,11.10
2022-09-27T11:19:15.535Z,11.20
2022-09-27T11:20:28.103Z,11.20
2022-09-27T11:21:56.369Z,11.20
2022-09-27T11:23:17.221Z,11.20
2022-09-27T11:24:40.502Z,11.20
2022-09-27T11:26:19.723Z,11.20
2022-09-27T11:27:40.402Z,11.10
2022-09-27T11:29:07.934Z,11.10
2022-09-27T11:31:03.542Z,11.10
2022-09-27T11:32:31.061Z,11.00
2022-09-27T11:33:54.730Z,11.00
2022-09-27T11:35:33.026Z,10.90
2022-09-27T11:36:41.925Z,10.90
2022-09-27T11:38:05.165Z,10.80
2022-09-27T11:39:12.357Z,10.80
2022-09-27T11:40:23.614Z,10.90
2022-09-27T11:41:25.712Z,10.90
2022-09-27T11:42:35.644Z,10.90
2022-09-27T11:44:13.576Z,10.90
2022-09-27T11:46:02.979Z,10.90
2022-09-27T11:47:41.782Z,10.90
2022-09-27T11:48:56.191Z,10.80
2022-09-27T11:50:29.736Z,10.70
2022-09-27T11:52:08.691Z,10.70
2022-09-27T11:53:28.313Z,10.70
2022-09-27T11:54:59.652Z,10.70
2022-09-27T11:56:37.886Z,10.60
2022-09-27T11:57:50.549Z,10.70
2022-09-27T11:59:24.555Z,10.60
2022-09-27T12:00:45.267Z,10.60
2022-09-27T12:02:16.758Z,10.60
2022-09-27T12:03:51.862Z,10.60
2022-09-27T12:05:19.803Z,10.60
2022-09-27T12:06:44.354Z,10.70
2022-09-27T12:08:14.162Z,10.70
2022-09-27T12:09:34.830Z,10.70
2022-09-27T12:10:41.575Z,10.60
2022-09-27T12:11:45.190Z,10.60
2022-09-27T12:12:54.239Z,10.60
2022-09-27T12:14:24.725Z,10.60
2022-09-27T12:15:34.767Z,10.60
2022-09-27T12:16:45.805Z,10.50
2022-09-27T12:17:52.253Z,10.50
2022-09-27T12:18:56.018Z,10.50
2022-09-27T12:20:21.292Z,10.40
2022-09-27T12:21:26.848Z,10.40
2022-09-27T12:22:57.633Z,10.40
2022-09-27T12:24:01.538Z,10.40
2022-09-27T12:25:21.164Z,10.40
2022-09-27T12:26:45.867Z,10.40
2022-09-27T12:28:03.134Z,10.40
2022-09-27T12:29:34.246Z,10.50
2022-09-27T12:30:41.732Z,10.50
2022-09-27T12:31:54.738Z,10.50
2022-09-27T12:33:08.472Z,10.60
2022-09-27T12:34:21.280Z,10.60
2022-09-27T12:35:29.701Z,10.60
2022-09-27T12:36:42.683Z,10.50
2022-09-27T12:37:49.850Z,10.50
2022-09-27T12:39:12.290Z,10.50
2022-09-27T12:40:22.087Z,10.50
2022-09-27T12:41:28.447Z,10.50
2022-09-27T12:43:29.210Z,10.50
2022-09-27T12:44:50.528Z,10.40
2022-09-27T12:46:27.055Z,10.30
2022-09-27T12:48:01.182Z,10.30
2022-09-27T12:49:26.720Z,10.30
2022-09-27T12:50:45.357Z,10.30
2022-09-27T12:51:58.553Z,10.30
2022-09-27T12:53:33.258Z,10.20
2022-09-27T12:55:03.201Z,10.30
2022-09-27T12:56:09.445Z,10.30
2022-09-27T12:57:45.444Z,10.30
2022-09-27T12:59:10.413Z,10.30
2022-09-27T13:00:21.472Z,10.20
2022-09-27T13:01:33.968Z,10.20
2022-09-27T13:03:16.055Z,10.20
2022-09-27T13:04:42.049Z,10.20
2022-09-27T13:06:23.158Z,10.20
2022-09-27T13:07:53.114Z,10.20
2022-09-27T13:09:35.140Z,10.20
2022-09-27T13:10:51.860Z,10.20
2022-09-27T13:12:20.780Z,10.20
2022-09-27T13:13:26.425Z,10.20
2022-09-27T13:14:34.571Z,10.20
2022-09-27T13:15:39.908Z,10.20
2022-09-27T13:16:44.937Z,10.30
2022-09-27T13:17:51.176Z,10.30
2022-09-27T13:19:02.872Z,10.40
2022-09-27T13:20:36.590Z,10.50
2022-09-27T13:21:50.472Z,10.60
2022-09-27T13:23:21.691Z,10.70
2022-09-27T13:24:41.050Z,10.70
2022-09-27T13:25:56.739Z,10.70
2022-09-27T13:27:23.388Z,10.70
2022-09-27T13:28:33.881Z,10.70
2022-09-27T13:29:38.649Z,10.70
2022-09-27T13:30:45.153Z,10.70
2022-09-27T13:31:54.629Z,10.80
2022-09-27T13:33:09.991Z,10.90
2022-09-27T13:34:42.891Z,10.90
2022-09-27T13:36:08.101Z,10.90
2022-09-27T13:37:45.789Z,10.90
2022-09-27T13:39:11.704Z,11.00
2022-09-27T13:40:37.425Z,11.00
2022-09-27T13:41:44.768Z,11.10
2022-09-27T13:43:10.977Z,11.10
2022-09-27T13:44:23.883Z,11.20
2022-09-27T13:45:37.810Z,11.20
2022-09-27T13:46:53.190Z,11.20
2022-09-27T13:47:59.140Z,11.20
2022-09-27T13:49:21.117Z,11.20
2022-09-27T13:50:48.306Z,11.30
2022-09-27T13:52:03.734Z,11.30
2022-09-27T13:53:18.745Z,11.30
2022-09-27T13:54:40.566Z,11.30
2022-09-27T13:55:45.015Z,11.30
2022-09-27T13:57:36.195Z,11.40
2022-09-27T13:59:10.138Z,11.40
2022-09-27T14:00:27.158Z,11.50
2022-09-27T14:01:41.448Z,11.50
2022-09-27T14:03:10.705Z,11.50
2022-09-27T14:04:26.042Z,11.50
2022-09-27T14:05:34.129Z,11.50
2022-09-27T14:06:42.302Z,11.40
2022-09-27T14:07:46.812Z,11.40
2022-09-27T14:08:56.798Z,11.40
2022-09-27T14:10:01.175Z,11.40
2022-09-27T14:11:13.794Z,11.40
2022-09-27T14:12:19.838Z,11.40
2022-09-27T14:13:24.597Z,11.40
2022-09-27T14:14:35.052Z,11.40
2022-09-27T14:15:37.860Z,11.40
2022-09-27T14:16:46.123Z,11.40
2022-09-27T14:17:51.840Z,11.40
2022-09-27T14:18:58.444Z,11.40
2022-09-27T14:20:55.510Z,11.50
2022-09-27T14:22:19.999Z,11.50
2022-09-27T14:23:38.535Z,11.50
2022-09-27T14:24:41.182Z,11.60
2022-09-27T14:25:55.091Z,11.60
2022-09-27T14:27:22.810Z,11.60
2022-09-27T14:28:40.180Z,11.60
2022-09-27T14:29:58.225Z,11.60
2022-09-27T14:31:18.868Z,11.50
2022-09-27T14:32:36.996Z,11.50
2022-09-27T14:33:45.773Z,11.50
2022-09-27T14:35:04.632Z,11.50
2022-09-27T14:36:48.036Z,11.50
2022-09-27T14:37:53.002Z,11.50
2022-09-27T14:38:58.826Z,11.40
2022-09-27T14:40:20.988Z,11.50
2022-09-27T14:41:24.619Z,11.50
2022-09-27T14:42:29.139Z,11.40
2022-09-27T14:43:32.996Z,11.50
2022-09-27T14:44:35.446Z,11.50
2022-09-27T14:45:40.361Z,11.50
2022-09-27T14:46:42.272Z,11.60
2022-09-27T14:47:49.505Z,11.60
2022-09-27T14:48:54.396Z,11.60
2022-09-27T14:50:05.357Z,11.60
2022-09-27T14:51:14.030Z,11.70
2022-09-27T14:52:28.958Z,11.70
2022-09-27T14:53:53.262Z,11.70
2022-09-27T14:55:05.870Z,11.70
2022-09-27T14:56:11.880Z,11.80
2022-09-27T14:57:17.187Z,11.80
2022-09-27T14:58:35.932Z,11.80
2022-09-27T14:59:44.541Z,11.80
2022-09-27T15:00:49.393Z,11.80
2022-09-27T15:01:51.890Z,11.80
2022-09-27T15:02:55.988Z,11.80
2022-09-27T15:04:05.133Z,11.70
2022-09-27T15:05:17.523Z,11.70
2022-09-27T15:06:20.281Z,11.70
2022-09-27T15:07:23.024Z,11.70
2022-09-27T15:08:34.132Z,11.60
2022-09-27T15:09:36.904Z,11.60
2022-09-27T15:10:39.294Z,11.50
2022-09-27T15:11:42.657Z,11.50
2022-09-27T15:12:50.149Z,11.50
2022-09-27T15:13:54.964Z,11.40
2022-09-27T15:14:58.262Z,11.40
2022-09-27T15:16:01.033Z,11.40
2022-09-27T15:17:06.115Z,11.40
2022-09-27T15:18:32.360Z,11.40
2022-09-27T15:19:35.231Z,11.30
2022-09-27T15:20:37.167Z,11.30
2022-09-27T15:21:39.043Z,11.30
2022-09-27T15:22:44.602Z,11.30
2022-09-27T15:23:46.493Z,11.30
2022-09-27T15:24:48.292Z,11.30
2022-09-27T15:26:03.194Z,11.30
2022-09-27T15:27:13.210Z,11.30
2022-09-27T15:28:19.540Z,11.20
2022-09-27T15:29:24.696Z,11.30
2022-09-27T15:30:36.034Z,11.30
2022-09-27T15:31:37.855Z,11.30
2022-09-27T15:32:39.756Z,11.20
2022-09-27T15:33:42.928Z,11.20
2022-09-27T15:34:44.730Z,11.20
2022-09-27T15:35:52.590Z,11.20
2022-09-27T15:37:06.585Z,11.20
2022-09-27T15:38:23.518Z,11.20
2022-09-27T15:39:37.677Z,11.10
2022-09-27T15:40:48.588Z,11.10